Time;durP1;ratioP1;P1;durP2;ratioP2;P2;SDS_P1;SDS_P2;PMS_P1;PMS_P2;Temp;Humidity;BMP_temperature;BMP_pressure;BME280_temperature;BME280_humidity;BME280_pressure;Samples;Min_cycle;Max_cycle;Signal;HPM_P1;HPM_P2
2021/09/21 00:02:22;;;;;;;;;;;;;;;21.67;82.80;102631.75;7282466;19;152634;-51
2021/09/21 00:04:49;;;;;;;;;;;;;;;21.66;82.44;102623.63;7281829;19;152788;-51
2021/09/21 00:07:16;;;;;;;;;;;;;;;21.65;83.00;102625.56;7281930;19;152004;-51
2021/09/21 00:09:45;;;;;;;;;;;;;;;21.67;82.78;102628.09;7281868;19;154222;-51
2021/09/21 00:12:12;;;;;;;;;;;;;;;21.65;82.58;102631.22;7290597;19;151748;-50
2021/09/21 00:14:39;;;;;;;;;;;;;;;21.66;82.97;102646.13;7281134;19;153889;-50
2021/09/21 00:17:06;;;;;;;;;;;;;;;21.66;82.81;102640.50;7281228;19;151835;-51
2021/09/21 00:19:33;;;;;;;;;;;;;;;21.68;82.69;102641.03;7281099;19;151872;-50
2021/09/21 00:22:00;;;;;;;;;;;;;;;21.66;82.59;102635.72;7280921;19;153720;-51
2021/09/21 00:24:27;;;;;;;;;;;;;;;21.67;82.93;102639.34;7282841;19;152810;-51
2021/09/21 00:26:53;;;;;;;;;;;;;;;21.66;82.85;102641.34;7283973;19;153500;-51
2021/09/21 00:29:20;;;;;;;;;;;;;;;21.66;82.94;102640.50;7281968;19;154121;-50
2021/09/21 00:31:55;;;;;;;;;;;;;;;21.66;82.88;102641.34;7281871;19;151955;-50
2021/09/21 00:34:26;;;;;;;;;;;;;;;21.66;83.35;102643.31;7288716;19;152520;-50
2021/09/21 00:36:54;;;;;;;;;;;;;;;21.66;82.85;102646.97;7283414;19;152655;-51
2021/09/21 00:39:21;;;;;;;;;;;;;;;21.65;83.01;102644.41;7283175;19;152296;-50
2021/09/21 00:41:49;;;;;;;;;;;;;;;21.65;83.19;102655.66;7280500;19;153766;-51
2021/09/21 00:44:18;;;;;;;;;;;;;;;21.65;83.33;102659.34;7283548;19;153302;-50
2021/09/21 00:46:45;;;;;;;;;;;;;;;21.66;82.84;102660.19;7283373;19;152530;-51
2021/09/21 00:49:12;;;;;;;;;;;;;;;21.66;82.95;102668.63;7276530;19;153371;-51
2021/09/21 00:51:38;;;;;;;;;;;;;;;21.65;83.08;102667.78;7277084;19;152286;-50
2021/09/21 00:54:05;;;;;;;;;;;;;;;21.65;82.74;102676.22;7283187;19;153373;-51
2021/09/21 00:56:32;;;;;;;;;;;;;;;21.65;82.70;102673.41;7286333;19;152555;-50
2021/09/21 00:58:59;;;;;;;;;;;;;;;21.65;82.98;102673.41;7279161;19;151860;-50
2021/09/21 01:01:26;;;;;;;;;;;;;;;21.65;82.98;102670.59;7280345;19;154802;-50
2021/09/21 01:03:53;;;;;;;;;;;;;;;21.64;82.75;102671.69;7281722;19;151651;-51
2021/09/21 01:06:20;;;;;;;;;;;;;;;21.65;82.97;102666.94;7281395;19;152966;-51
2021/09/21 01:08:48;;;;;;;;;;;;;;;21.64;83.08;102660.44;7280859;19;152915;-50
2021/09/21 01:11:15;;;;;;;;;;;;;;;21.64;82.80;102660.44;7280853;19;151846;-50
2021/09/21 01:13:42;;;;;;;;;;;;;;;21.65;83.19;102666.94;7281782;19;152102;-50
2021/09/21 01:16:09;;;;;;;;;;;;;;;21.65;83.04;102655.66;7278906;19;152556;-50
2021/09/21 01:18:36;;;;;;;;;;;;;;;21.65;82.66;102659.34;7287443;19;151656;-50
2021/09/21 01:21:04;;;;;;;;;;;;;;;21.65;82.81;102655.66;7280522;19;154029;-51
2021/09/21 01:23:42;;;;;;;;;;;;;;;21.64;83.16;102656.78;7279592;19;151729;-50
2021/09/21 01:26:09;;;;;;;;;;;;;;;21.62;83.31;102657.06;7282500;19;151992;-51
2021/09/21 01:28:36;;;;;;;;;;;;;;;21.64;83.38;102654.81;7277717;19;152568;-51
2021/09/21 01:31:02;;;;;;;;;;;;;;;21.64;83.12;102657.63;7279100;19;151750;-51
2021/09/21 01:33:29;;;;;;;;;;;;;;;21.64;83.25;102660.44;7283198;19;154977;-50
2021/09/21 01:35:57;;;;;;;;;;;;;;;21.64;82.88;102665.22;7279304;19;153787;-50
2021/09/21 01:38:24;;;;;;;;;;;;;;;21.63;83.28;102669.16;7286809;19;152299;-50
2021/09/21 01:40:50;;;;;;;;;;;;;;;21.64;83.35;102668.03;7279758;19;152463;-50
2021/09/21 01:43:17;;;;;;;;;;;;;;;21.63;83.18;102669.16;7286579;19;152668;-51
2021/09/21 01:45:44;;;;;;;;;;;;;;;21.62;83.64;102665.50;7288622;19;151921;-51
2021/09/21 01:48:11;;;;;;;;;;;;;;;21.64;83.52;102666.06;7285574;19;152897;-51
2021/09/21 01:50:47;;;;;;;;;;;;;;;21.65;83.38;102666.94;7281907;19;151909;-51
2021/09/21 01:53:25;;;;;;;;;;;;;;;21.64;83.25;102663.25;7284037;19;152932;-51
2021/09/21 02:00:59;;;;;;;;;;;;;;;21.63;83.22;102671.97;7294251;19;152826;-57
2021/09/21 02:03:26;;;;;;;;;;;;;;;21.63;83.31;102670.00;7286903;19;152395;-50
2021/09/21 02:05:53;;;;;;;;;;;;;;;21.62;83.71;102664.66;7285357;19;152319;-50
2021/09/21 02:08:20;;;;;;;;;;;;;;;21.62;83.79;102670.28;7285233;19;153211;-50
2021/09/21 02:10:47;;;;;;;;;;;;;;;21.62;83.92;102673.94;7286145;19;151873;-51
2021/09/21 02:13:14;;;;;;;;;;;;;;;21.62;83.67;102673.94;7286853;19;153209;-50
2021/09/21 02:15:41;;;;;;;;;;;;;;;21.62;83.89;102673.94;7283748;19;153262;-50
2021/09/21 02:18:08;;;;;;;;;;;;;;;21.63;83.84;102670.00;7285557;19;151763;-50
2021/09/21 02:20:35;;;;;;;;;;;;;;;21.63;83.45;102664.38;7284784;19;152511;-51
2021/09/21 02:23:02;;;;;;;;;;;;;;;21.63;84.06;102655.09;7292185;19;154018;-51
2021/09/21 02:25:29;;;;;;;;;;;;;;;21.62;83.86;102656.22;7282132;19;153264;-50
2021/09/21 02:27:56;;;;;;;;;;;;;;;21.62;83.67;102653.41;7285914;19;153801;-51
2021/09/21 02:30:22;;;;;;;;;;;;;;;21.62;83.59;102651.41;7282722;19;151808;-51
2021/09/21 02:32:49;;;;;;;;;;;;;;;21.62;83.50;102661.84;7286240;19;153215;-49
2021/09/21 02:35:17;;;;;;;;;;;;;;;21.62;83.82;102664.66;7281812;19;152165;-51
2021/09/21 02:37:43;;;;;;;;;;;;;;;21.61;83.67;102663.81;7285662;19;151797;-51
2021/09/21 02:40:11;;;;;;;;;;;;;;;21.61;83.79;102651.72;7279701;19;152889;-50
2021/09/21 02:42:38;;;;;;;;;;;;;;;21.62;83.87;102650.59;7283662;19;152893;-50
2021/09/21 02:45:05;;;;;;;;;;;;;;;21.63;83.75;102658.75;7289297;19;151786;-51
2021/09/21 02:47:32;;;;;;;;;;;;;;;21.61;83.48;102660.16;7284505;19;153700;-51
2021/09/21 02:49:59;;;;;;;;;;;;;;;21.60;83.75;102659.31;7286800;19;151993;-50
2021/09/21 02:52:25;;;;;;;;;;;;;;;21.61;83.73;102654.53;7278511;19;155807;-50
2021/09/21 02:54:52;;;;;;;;;;;;;;;21.61;83.26;102666.63;7283978;19;152296;-51
2021/09/21 02:57:19;;;;;;;;;;;;;;;21.60;83.30;102655.66;7286209;19;151676;-51
2021/09/21 02:59:46;;;;;;;;;;;;;;;21.61;83.58;102660.16;7282908;19;153539;-51
2021/09/21 03:02:12;;;;;;;;;;;;;;;21.59;83.62;102654.78;7284342;19;153962;-50
2021/09/21 03:04:48;;;;;;;;;;;;;;;21.59;83.79;102651.13;7281612;19;151954;-51
2021/09/21 03:07:17;;;;;;;;;;;;;;;21.60;83.56;102656.50;7287949;19;153566;-50
2021/09/21 03:12:25;;;;;;;;;;;;;;;21.59;83.39;102659.56;7282724;19;152552;-50
2021/09/21 03:17:27;;;;;;;;;;;;;;;21.60;83.55;102659.31;7281953;19;151918;-51
2021/09/21 03:19:54;;;;;;;;;;;;;;;21.60;83.82;102661.28;7282213;19;151939;-51
2021/09/21 03:22:22;;;;;;;;;;;;;;;21.59;83.42;102668.84;7285517;19;153408;-51
2021/09/21 03:24:49;;;;;;;;;;;;;;;21.59;83.92;102668.84;7283147;19;151918;-50
2021/09/21 03:27:16;;;;;;;;;;;;;;;21.59;83.86;102668.00;7283550;19;153311;-51
2021/09/21 03:29:43;;;;;;;;;;;;;;;21.59;83.72;102673.63;7288717;19;151655;-50
2021/09/21 03:32:10;;;;;;;;;;;;;;;21.60;83.59;102680.97;7283710;19;152713;-50
2021/09/21 03:34:38;;;;;;;;;;;;;;;21.58;83.67;102674.75;7283544;19;153762;-51
2021/09/21 03:37:06;;;;;;;;;;;;;;;21.59;83.75;102679.25;7283511;19;152236;-51
2021/09/21 03:39:32;;;;;;;;;;;;;;;21.59;83.79;102674.50;7285033;19;152678;-50
2021/09/21 03:42:00;;;;;;;;;;;;;;;21.60;83.47;102684.63;7282654;19;153368;-50
2021/09/21 03:44:27;;;;;;;;;;;;;;;21.58;83.84;102684.03;7282712;19;151913;-51
2021/09/21 03:46:54;;;;;;;;;;;;;;;21.60;83.53;102692.22;7285746;19;152721;-51
2021/09/21 03:49:21;;;;;;;;;;;;;;;21.59;83.53;102691.38;7289152;19;154035;-51
2021/09/21 03:51:48;;;;;;;;;;;;;;;21.59;83.88;102696.13;7282111;19;152622;-51
2021/09/21 03:54:15;;;;;;;;;;;;;;;21.58;83.76;102694.44;7275234;19;157009;-51
2021/09/21 03:56:42;;;;;;;;;;;;;;;21.59;83.67;102698.94;7281093;19;151939;-50
2021/09/21 03:59:09;;;;;;;;;;;;;;;21.57;83.80;102698.41;7277938;19;152968;-51
2021/09/21 04:01:35;;;;;;;;;;;;;;;21.57;83.39;102701.22;7283472;19;153440;-50
2021/09/21 04:04:03;;;;;;;;;;;;;;;21.58;83.60;102700.06;7282657;19;153392;-51
2021/09/21 04:06:30;;;;;;;;;;;;;;;21.57;83.31;102704.03;7281253;19;152699;-50
2021/09/21 04:08:56;;;;;;;;;;;;;;;21.55;83.43;102709.06;7283646;19;152255;-51
2021/09/21 04:11:23;;;;;;;;;;;;;;;21.55;83.82;102712.72;7291015;19;151626;-51
2021/09/21 04:13:50;;;;;;;;;;;;;;;21.56;83.78;102708.81;7282296;19;153819;-51
2021/09/21 04:16:18;;;;;;;;;;;;;;;21.55;83.41;102714.69;7282369;19;152006;-50
2021/09/21 04:18:45;;;;;;;;;;;;;;;21.54;83.87;102715.78;7280310;19;152159;-51
2021/09/21 04:21:12;;;;;;;;;;;;;;;21.54;83.53;102730.72;7282316;19;153756;-51
2021/09/21 04:23:40;;;;;;;;;;;;;;;21.54;83.89;102721.41;7284130;19;151814;-51
2021/09/21 04:26:07;;;;;;;;;;;;;;;21.55;83.74;102729.59;7279140;19;153317;-51
2021/09/21 04:28:34;;;;;;;;;;;;;;;21.55;83.89;102726.78;7282475;19;154237;-51
2021/09/21 04:31:10;;;;;;;;;;;;;;;21.58;83.78;102728.19;7282116;19;151942;-50
2021/09/21 04:33:38;;;;;;;;;;;;;;;21.57;83.20;102726.53;7288969;19;153865;-50
2021/09/21 04:36:05;;;;;;;;;;;;;;;21.58;83.69;102725.38;7284444;19;151781;-50
2021/09/21 04:38:32;;;;;;;;;;;;;;;21.57;83.57;102720.91;7279702;19;152643;-51
2021/09/21 04:40:59;;;;;;;;;;;;;;;21.57;83.15;102732.16;7283722;19;152685;-51
2021/09/21 04:43:25;;;;;;;;;;;;;;;21.55;83.01;102726.78;7282998;19;151954;-51
2021/09/21 04:45:53;;;;;;;;;;;;;;;21.54;83.21;102741.97;7284155;19;153383;-51
2021/09/21 04:48:19;;;;;;;;;;;;;;;21.53;83.47;102736.63;7281623;19;153676;-50
2021/09/21 04:50:46;;;;;;;;;;;;;;;21.54;83.23;102735.50;7283723;19;152031;-49
2021/09/21 04:53:13;;;;;;;;;;;;;;;21.53;83.24;102736.63;7282828;19;152719;-51
2021/09/21 04:55:40;;;;;;;;;;;;;;;21.52;83.13;102735.78;7286602;19;153378;-51
2021/09/21 04:58:07;;;;;;;;;;;;;;;21.53;83.11;102733.81;7281130;19;153209;-51
2021/09/21 05:00:34;;;;;;;;;;;;;;;21.53;83.28;102740.25;7281597;19;152353;-51
2021/09/21 05:03:00;;;;;;;;;;;;;;;21.55;82.98;102737.19;7282455;19;152243;-51
2021/09/21 05:05:28;;;;;;;;;;;;;;;21.53;83.09;102736.63;7284302;19;152861;-50
2021/09/21 05:07:54;;;;;;;;;;;;;;;21.54;83.11;102749.56;7279642;19;153712;-55
2021/09/21 05:10:21;;;;;;;;;;;;;;;21.52;82.87;102751.81;7284531;19;151653;-50
2021/09/21 05:12:48;;;;;;;;;;;;;;;21.51;82.75;102759.38;7282584;19;153203;-51
2021/09/21 05:15:14;;;;;;;;;;;;;;;21.50;83.03;102765.28;7281304;19;153900;-50
2021/09/21 05:17:41;;;;;;;;;;;;;;;21.50;82.74;102757.69;7292777;19;152177;-51
2021/09/21 05:20:08;;;;;;;;;;;;;;;21.50;83.04;102766.13;7286256;19;154071;-51
2021/09/21 05:22:35;;;;;;;;;;;;;;;21.50;82.65;102763.31;7290493;19;152259;-51
2021/09/21 05:25:03;;;;;;;;;;;;;;;21.48;82.95;102761.91;7288127;19;153755;-51
2021/09/21 05:27:30;;;;;;;;;;;;;;;21.48;83.02;102768.38;7288912;19;152138;-51
2021/09/21 05:29:57;;;;;;;;;;;;;;;21.49;82.83;102769.19;7286623;19;152198;-51
2021/09/21 05:32:24;;;;;;;;;;;;;;;21.49;82.44;102774.81;7288073;19;153702;-51
2021/09/21 05:34:50;;;;;;;;;;;;;;;21.49;82.92;102770.06;7288234;19;153830;-51
2021/09/21 05:37:17;;;;;;;;;;;;;;;21.49;82.55;102769.19;7296989;19;152018;-50
2021/09/21 05:39:44;;;;;;;;;;;;;;;21.50;82.83;102771.75;7284951;19;153270;-51
2021/09/21 05:42:11;;;;;;;;;;;;;;;21.49;82.75;102770.06;7290666;19;152303;-51
2021/09/21 05:44:37;;;;;;;;;;;;;;;21.49;82.74;102772.88;7288173;19;152860;-51
2021/09/21 05:47:04;;;;;;;;;;;;;;;21.49;82.40;102775.69;7285251;19;154176;-51
2021/09/21 05:49:31;;;;;;;;;;;;;;;21.48;82.44;102779.63;7289489;19;151860;-51
2021/09/21 05:51:58;;;;;;;;;;;;;;;21.47;82.05;102782.69;7289049;19;152646;-50
2021/09/21 05:54:24;;;;;;;;;;;;;;;21.46;82.47;102787.47;7289753;19;154412;-51
2021/09/21 05:56:51;;;;;;;;;;;;;;;21.46;82.16;102790.28;7285716;19;151917;-51
2021/09/21 05:59:18;;;;;;;;;;;;;;;21.44;82.26;102789.69;7292769;19;153389;-50
2021/09/21 06:01:45;;;;;;;;;;;;;;;21.43;82.41;102793.66;7289820;19;153640;-50
2021/09/21 06:04:13;;;;;;;;;;;;;;;21.45;81.99;102791.41;7286940;19;152427;-50
2021/09/21 06:06:39;;;;;;;;;;;;;;;21.44;82.32;102800.94;7288358;19;153653;-51
2021/09/21 06:09:06;;;;;;;;;;;;;;;21.42;82.28;102799.53;7286660;19;151803;-51
2021/09/21 06:11:33;;;;;;;;;;;;;;;21.43;82.35;102802.09;7286397;19;152672;-50
2021/09/21 06:14:01;;;;;;;;;;;;;;;21.44;81.83;102794.50;7288388;19;152493;-51
2021/09/21 06:16:28;;;;;;;;;;;;;;;21.45;82.05;102799.00;7287761;19;151663;-50
2021/09/21 06:18:55;;;;;;;;;;;;;;;21.46;82.09;102792.25;7287260;19;153621;-51
2021/09/21 06:21:22;;;;;;;;;;;;;;;21.48;81.96;102799.31;7293240;19;155640;-51
2021/09/21 06:23:49;;;;;;;;;;;;;;;21.49;82.59;102786.94;7285013;19;153600;-50
2021/09/21 06:26:16;;;;;;;;;;;;;;;21.46;80.56;102783.81;7284821;19;153554;-51
2021/09/21 06:28:43;;;;;;;;;;;;;;;21.41;80.51;102783.78;7285173;19;151590;-51
2021/09/21 06:31:10;;;;;;;;;;;;;;;21.36;81.01;102798.63;7288371;19;153100;-50
2021/09/21 06:33:37;;;;;;;;;;;;;;;21.35;80.38;102796.13;7284080;19;152093;-50
2021/09/21 06:36:04;;;;;;;;;;;;;;;21.36;80.30;102793.00;7286356;19;152119;-50
2021/09/21 06:38:34;;;;;;;;;;;;;;;21.34;80.14;102811.28;7285320;19;151995;-50
2021/09/21 06:41:01;;;;;;;;;;;;;;;21.35;80.06;102807.38;7286716;19;153284;-50
2021/09/21 06:43:28;;;;;;;;;;;;;;;21.29;79.91;102812.94;7294201;19;152026;-50
2021/09/21 06:45:56;;;;;;;;;;;;;;;21.29;77.94;102820.53;7285285;19;154040;-50
2021/09/21 06:48:24;;;;;;;;;;;;;;;21.04;71.31;102821.09;7287917;19;151626;-50
2021/09/21 06:50:52;;;;;;;;;;;;;;;20.83;70.18;102828.50;7287153;19;153272;-50
2021/09/21 06:53:18;;;;;;;;;;;;;;;20.68;69.84;102831.13;7284278;19;153251;-51
2021/09/21 06:55:46;;;;;;;;;;;;;;;20.62;69.64;102843.44;7285334;19;151856;-52
2021/09/21 06:58:13;;;;;;;;;;;;;;;20.56;69.35;102847.28;7287414;19;153028;-50
2021/09/21 07:00:41;;;;;;;;;;;;;;;20.50;69.53;102842.69;7283590;19;155336;-50
2021/09/21 07:03:08;;;;;;;;;;;;;;;20.33;69.63;102842.78;7286672;19;151897;-50
2021/09/21 07:05:35;;;;;;;;;;;;;;;20.25;69.85;102842.34;7294383;19;153266;-51
2021/09/21 07:08:02;;;;;;;;;;;;;;;20.20;70.09;102851.56;7285233;19;151950;-50
2021/09/21 07:10:29;;;;;;;;;;;;;;;20.14;69.80;102851.72;7286546;19;151793;-50
2021/09/21 07:12:56;;;;;;;;;;;;;;;20.10;70.37;102844.94;7284250;19;152604;-50
2021/09/21 07:15:23;;;;;;;;;;;;;;;20.33;72.43;102858.78;7285372;19;151813;-50
2021/09/21 07:17:51;;;;;;;;;;;;;;;20.44;73.24;102854.16;7285026;19;153355;-50
2021/09/21 07:20:18;;;;;;;;;;;;;;;20.51;74.07;102851.97;7279975;19;153253;-51
2021/09/21 07:22:45;;;;;;;;;;;;;;;20.52;75.15;102848.06;7287892;19;151639;-51
2021/09/21 07:25:13;;;;;;;;;;;;;;;20.53;75.88;102849.75;7285106;19;152637;-54
2021/09/21 07:27:40;;;;;;;;;;;;;;;20.57;76.20;102860.22;7290557;19;151992;-51
2021/09/21 07:30:07;;;;;;;;;;;;;;;20.58;76.56;102852.63;7284781;19;153598;-50
2021/09/21 07:32:34;;;;;;;;;;;;;;;20.57;76.54;102862.16;7284882;19;154333;-50
2021/09/21 07:35:02;;;;;;;;;;;;;;;20.58;76.75;102861.06;7283876;19;152007;-51
2021/09/21 07:37:32;;;;;;;;;;;;;;;20.59;76.84;102855.16;7286741;19;151963;-51
2021/09/21 07:39:59;;;;;;;;;;;;;;;20.60;77.41;102854.06;7278126;19;153916;-49
2021/09/21 07:42:25;;;;;;;;;;;;;;;20.61;77.03;102847.34;7285267;19;151847;-55
2021/09/21 07:44:54;;;;;;;;;;;;;;;20.63;77.37;102855.47;7282093;19;153096;-50
2021/09/21 07:47:21;;;;;;;;;;;;;;;20.63;77.66;102852.69;7290769;19;153412;-50
2021/09/21 07:49:48;;;;;;;;;;;;;;;20.63;77.65;102852.69;7284765;19;153289;-50
2021/09/21 07:52:15;;;;;;;;;;;;;;;20.64;77.67;102846.81;7282860;19;154452;-50
2021/09/21 07:54:43;;;;;;;;;;;;;;;20.65;77.57;102845.69;7282528;19;151929;-50
2021/09/21 07:57:10;;;;;;;;;;;;;;;20.66;77.73;102846.56;7283564;19;153082;-50
2021/09/21 07:59:39;;;;;;;;;;;;;;;20.66;77.90;102847.41;7280224;19;153195;-51
2021/09/21 08:02:09;;;;;;;;;;;;;;;20.66;78.17;102855.84;7284171;19;151608;-51
2021/09/21 08:04:37;;;;;;;;;;;;;;;20.68;77.78;102855.53;7285915;19;152569;-50
2021/09/21 08:07:05;;;;;;;;;;;;;;;20.68;78.04;102862.00;7282087;19;152660;-50
2021/09/21 08:09:32;;;;;;;;;;;;;;;20.72;77.57;102859.53;7291676;19;151982;-51
2021/09/21 08:11:59;;;;;;;;;;;;;;;20.70;78.17;102858.97;7283033;19;153380;-50
2021/09/21 08:14:26;;;;;;;;;;;;;;;20.71;78.11;102849.44;7284611;19;151923;-51
2021/09/21 08:16:53;;;;;;;;;;;;;;;20.69;78.14;102863.72;7282303;19;153385;-51
2021/09/21 08:19:20;;;;;;;;;;;;;;;20.70;78.07;102850.53;7283200;19;153291;-51
2021/09/21 08:21:47;;;;;;;;;;;;;;;20.74;78.12;102860.13;7282377;19;151916;-50
2021/09/21 08:24:14;;;;;;;;;;;;;;;20.72;77.88;102860.38;7286040;19;152783;-50
2021/09/21 08:26:40;;;;;;;;;;;;;;;20.70;77.97;102859.81;7281960;19;153235;-51
2021/09/21 08:29:07;;;;;;;;;;;;;;;20.73;78.27;102864.88;7284941;19;151821;-51
2021/09/21 08:31:35;;;;;;;;;;;;;;;20.73;78.10;102861.22;7290100;19;153456;-51
2021/09/21 08:34:04;;;;;;;;;;;;;;;20.75;77.69;102862.69;7284216;19;151670;-51
2021/09/21 08:36:35;;;;;;;;;;;;;;;20.74;78.11;102858.16;7283517;19;153165;-51
2021/09/21 08:39:03;;;;;;;;;;;;;;;20.76;78.48;102861.53;7283881;19;153223;-50
2021/09/21 08:41:31;;;;;;;;;;;;;;;20.75;78.25;102859.88;7284220;19;153083;-50
2021/09/21 08:43:58;;;;;;;;;;;;;;;20.75;78.64;102867.44;7284044;19;153372;-50
2021/09/21 08:46:25;;;;;;;;;;;;;;;20.76;78.81;102867.16;7285027;19;153814;-50
2021/09/21 08:48:52;;;;;;;;;;;;;;;20.79;78.57;102874.22;7281187;19;152188;-50
2021/09/21 08:51:19;;;;;;;;;;;;;;;20.78;78.64;102880.94;7283684;19;152905;-50
2021/09/21 08:53:46;;;;;;;;;;;;;;;20.78;78.53;102879.00;7286580;19;152588;-50
2021/09/21 08:56:13;;;;;;;;;;;;;;;20.80;78.46;102893.63;7281055;19;153173;-51
2021/09/21 08:58:40;;;;;;;;;;;;;;;20.81;78.33;102891.66;7283511;19;153229;-50
2021/09/21 09:01:10;;;;;;;;;;;;;;;20.82;78.38;102893.34;7276787;19;152531;-51
2021/09/21 09:03:38;;;;;;;;;;;;;;;20.82;78.50;102894.22;7280982;19;152139;-51
2021/09/21 09:06:06;;;;;;;;;;;;;;;20.82;78.53;102891.41;7278123;19;153755;-51
2021/09/21 09:08:34;;;;;;;;;;;;;;;20.83;78.17;102892.25;7282489;19;152206;-51
2021/09/21 09:11:04;;;;;;;;;;;;;;;20.84;78.18;102894.81;7283254;19;151814;-50
2021/09/21 09:13:31;;;;;;;;;;;;;;;20.86;78.18;102898.19;7282095;19;154021;-50
2021/09/21 09:15:59;;;;;;;;;;;;;;;20.86;78.58;102903.81;7291027;19;151475;-51
2021/09/21 09:18:26;;;;;;;;;;;;;;;20.88;78.66;102905.50;7283017;19;152806;-50
2021/09/21 09:20:54;;;;;;;;;;;;;;;20.90;78.34;102900.47;7282806;19;152236;-50
2021/09/21 09:23:21;;;;;;;;;;;;;;;20.89;78.48;102908.06;7280330;19;153127;-50
2021/09/21 09:25:48;;;;;;;;;;;;;;;20.90;78.15;102898.50;7283049;19;152212;-50
2021/09/21 09:28:18;;;;;;;;;;;;;;;20.93;78.10;102903.63;7278757;19;152157;-50
2021/09/21 09:30:45;;;;;;;;;;;;;;;20.93;78.33;102905.56;7283976;19;152812;-50
2021/09/21 09:33:12;;;;;;;;;;;;;;;20.95;78.43;102897.72;7280405;19;153234;-50
2021/09/21 09:35:41;;;;;;;;;;;;;;;20.91;78.47;102908.63;7280729;19;152363;-50
2021/09/21 09:38:09;;;;;;;;;;;;;;;20.95;78.10;102900.53;7285483;19;151827;-51
2021/09/21 09:40:39;;;;;;;;;;;;;;;20.95;78.35;102906.16;7277598;19;151913;-50
2021/09/21 09:43:06;;;;;;;;;;;;;;;20.97;78.01;102906.75;7279677;19;151706;-51
2021/09/21 09:45:36;;;;;;;;;;;;;;;20.96;78.22;102907.84;7281183;19;153881;-50
2021/09/21 09:48:05;;;;;;;;;;;;;;;20.95;78.31;102901.38;7282933;19;152046;-50
2021/09/21 09:50:33;;;;;;;;;;;;;;;20.97;78.01;102903.94;7281831;19;152745;-51
2021/09/21 09:53:03;;;;;;;;;;;;;;;21.00;78.18;102903.41;7278857;19;153925;-50
2021/09/21 09:55:32;;;;;;;;;;;;;;;21.03;78.17;102911.31;7277386;19;151834;-50
2021/09/21 09:58:00;;;;;;;;;;;;;;;21.02;77.97;102904.84;7289192;19;153296;-50
2021/09/21 10:00:28;;;;;;;;;;;;;;;21.04;78.27;102907.38;7280127;19;151654;-50
2021/09/21 10:02:55;;;;;;;;;;;;;;;21.03;78.04;102909.31;7282596;19;153418;-50
2021/09/21 10:05:22;;;;;;;;;;;;;;;21.05;77.77;102911.88;7287216;19;153480;-51
2021/09/21 10:07:49;;;;;;;;;;;;;;;21.05;77.59;102911.88;7287351;19;151770;-51
2021/09/21 10:10:16;;;;;;;;;;;;;;;21.07;77.85;102916.16;7288987;19;153145;-50
2021/09/21 10:12:43;;;;;;;;;;;;;;;21.07;77.87;102910.53;7286307;19;154008;-50
2021/09/21 10:15:11;;;;;;;;;;;;;;;21.08;77.99;102912.19;7284176;19;151896;-50
2021/09/21 10:17:47;;;;;;;;;;;;;;;21.10;77.66;102912.81;7287566;19;151707;-51
2021/09/21 10:20:14;;;;;;;;;;;;;;;21.11;78.07;102903.25;7292847;19;154070;-50
2021/09/21 10:22:41;;;;;;;;;;;;;;;21.11;77.96;102908.88;7289706;19;152664;-50
2021/09/21 10:25:09;;;;;;;;;;;;;;;21.13;77.90;102909.47;7284173;19;153359;-51
2021/09/21 10:27:36;;;;;;;;;;;;;;;21.15;77.59;102903.59;7287910;19;152080;-51
2021/09/21 10:30:05;;;;;;;;;;;;;;;21.15;77.69;102900.78;7286735;19;153152;-50
2021/09/21 10:32:40;;;;;;;;;;;;;;;21.16;77.45;102899.69;7285891;19;153327;-50
2021/09/21 10:35:09;;;;;;;;;;;;;;;21.18;77.71;102903.06;7288275;19;152010;-51
2021/09/21 10:37:36;;;;;;;;;;;;;;;21.19;77.89;102897.19;7288438;19;152980;-50
2021/09/21 10:40:04;;;;;;;;;;;;;;;21.20;77.88;102900.84;7285388;19;152283;-50
2021/09/21 10:42:31;;;;;;;;;;;;;;;21.23;77.60;102900.31;7296326;19;151844;-50
2021/09/21 10:44:59;;;;;;;;;;;;;;;21.23;77.66;102889.91;7283884;19;153241;-51
2021/09/21 10:47:28;;;;;;;;;;;;;;;21.22;77.37;102902.25;7286711;19;152307;-51
2021/09/21 10:50:08;;;;;;;;;;;;;;;21.24;77.73;102902.88;7286323;19;153866;-50
2021/09/21 10:52:35;;;;;;;;;;;;;;;21.23;77.77;102895.53;7285008;19;153552;-51
2021/09/21 10:55:04;;;;;;;;;;;;;;;21.27;77.74;102902.31;7284095;19;152552;-51
2021/09/21 10:57:33;;;;;;;;;;;;;;;21.29;77.42;102885.19;7287462;19;153379;-50
2021/09/21 11:00:03;;;;;;;;;;;;;;;21.28;77.71;102886.31;7287348;19;153319;-50
2021/09/21 11:02:32;;;;;;;;;;;;;;;21.30;77.63;102887.72;7284073;19;151754;-50
2021/09/21 11:04:59;;;;;;;;;;;;;;;21.32;77.75;102883.81;7295366;19;152663;-50
2021/09/21 11:07:26;;;;;;;;;;;;;;;21.33;77.30;102883.53;7283180;19;151754;-50
2021/09/21 11:09:54;;;;;;;;;;;;;;;21.34;77.60;102885.25;7284863;19;152524;-51
2021/09/21 11:12:23;;;;;;;;;;;;;;;21.34;77.64;102885.25;7286264;19;153246;-50
2021/09/21 11:14:52;;;;;;;;;;;;;;;21.36;77.56;102876.53;7281543;19;151993;-51
2021/09/21 11:17:23;;;;;;;;;;;;;;;21.39;77.40;102882.50;7285229;19;153368;-50
2021/09/21 11:19:52;;;;;;;;;;;;;;;21.39;77.46;102885.31;7284623;19;153180;-50
2021/09/21 11:22:26;;;;;;;;;;;;;;;21.40;77.57;102880.50;7286726;19;151681;-50
2021/09/21 11:24:56;;;;;;;;;;;;;;;21.42;77.44;102870.69;7280447;19;152428;-50
2021/09/21 11:27:22;;;;;;;;;;;;;;;21.44;77.34;102870.44;7293336;19;153825;-51
2021/09/21 11:29:58;;;;;;;;;;;;;;;21.45;77.50;102870.16;7286052;19;153146;-51
2021/09/21 11:32:25;;;;;;;;;;;;;;;21.47;76.98;102870.75;7283946;19;153394;-50
2021/09/21 11:34:55;;;;;;;;;;;;;;;21.46;77.31;102869.03;7284507;19;151897;-50
2021/09/21 11:37:22;;;;;;;;;;;;;;;21.49;77.31;102865.69;7285535;19;152568;-51
2021/09/21 11:39:49;;;;;;;;;;;;;;;21.51;76.74;102868.22;7283084;19;154247;-51
2021/09/21 11:42:19;;;;;;;;;;;;;;;21.52;76.63;102873.59;7282345;19;152365;-51
2021/09/21 11:44:46;;;;;;;;;;;;;;;21.54;76.90;102870.50;7287159;19;151660;-50
2021/09/21 11:47:13;;;;;;;;;;;;;;;21.56;76.78;102868.28;7285345;19;154021;-51
2021/09/21 11:49:50;;;;;;;;;;;;;;;21.57;76.84;102867.16;7294882;19;151479;-50
2021/09/21 11:52:20;;;;;;;;;;;;;;;21.61;76.89;102873.94;7282383;19;152385;-54
2021/09/21 11:54:48;;;;;;;;;;;;;;;21.60;76.47;102872.25;7284628;19;152134;-50
2021/09/21 11:57:15;;;;;;;;;;;;;;;21.62;76.62;102867.22;7286650;19;153727;-50
2021/09/21 11:59:42;;;;;;;;;;;;;;;21.63;76.53;102861.28;7282889;19;155659;-51
2021/09/21 12:02:16;;;;;;;;;;;;;;;21.63;76.39;102861.28;7280135;19;151691;-51
2021/09/21 12:04:44;;;;;;;;;;;;;;;21.66;76.17;102865.56;7285652;19;152453;-50
2021/09/21 12:07:11;;;;;;;;;;;;;;;21.66;76.28;102860.78;7283952;19;154078;-50
2021/09/21 12:09:38;;;;;;;;;;;;;;;21.65;76.43;102856.25;7290998;19;151877;-50
2021/09/21 12:12:08;;;;;;;;;;;;;;;21.66;76.41;102849.53;7281883;19;152162;-51
2021/09/21 12:14:35;;;;;;;;;;;;;;;21.68;75.95;102844.47;7283401;19;152033;-50
2021/09/21 12:17:02;;;;;;;;;;;;;;;21.70;76.29;102850.69;7285213;19;152552;-50
2021/09/21 12:19:29;;;;;;;;;;;;;;;21.73;76.31;102849.28;7283227;19;154131;-51
2021/09/21 12:21:58;;;;;;;;;;;;;;;21.74;76.41;102848.16;7279871;19;152047;-50
2021/09/21 12:24:28;;;;;;;;;;;;;;;21.74;76.16;102848.16;7281925;19;152689;-50
2021/09/21 12:27:01;;;;;;;;;;;;;;;21.75;76.00;102855.50;7280240;19;152619;-51
2021/09/21 12:29:31;;;;;;;;;;;;;;;21.73;76.12;102855.75;7283216;19;151846;-50
2021/09/21 12:31:58;;;;;;;;;;;;;;;21.76;76.27;102854.34;7290432;19;152895;-50
2021/09/21 12:34:31;;;;;;;;;;;;;;;21.77;75.97;102852.38;7284807;19;151839;-50
2021/09/21 12:36:59;;;;;;;;;;;;;;;21.78;76.20;102857.75;7283129;19;153059;-50
2021/09/21 12:39:31;;;;;;;;;;;;;;;21.78;75.91;102854.94;7281556;19;153140;-49
2021/09/21 12:41:59;;;;;;;;;;;;;;;21.80;76.07;102854.69;7281719;19;151642;-50